createdAt,value
2023-03-03T00:00:57.612Z,1.97
2023-03-03T00:01:57.640Z,2.04
2023-03-03T00:02:57.593Z,1.97
2023-03-03T00:03:57.568Z,2.02
2023-03-03T00:04:57.552Z,2.02
2023-03-03T00:05:57.495Z,2.02
2023-03-03T00:06:57.495Z,2.02
2023-03-03T00:07:57.515Z,2.06
2023-03-03T00:08:57.456Z,1.95
2023-03-03T00:09:57.459Z,1.94
2023-03-03T00:10:57.437Z,2.07
2023-03-03T00:11:57.440Z,2.02
2023-03-03T00:12:57.406Z,2.00
2023-03-03T00:13:57.652Z,1.99
2023-03-03T00:14:57.371Z,2.02
2023-03-03T00:15:57.365Z,1.97
2023-03-03T00:16:57.332Z,1.97
2023-03-03T00:17:57.329Z,1.84
2023-03-03T00:18:57.303Z,1.81
2023-03-03T00:19:57.284Z,1.84
2023-03-03T00:20:57.353Z,1.87
2023-03-03T00:21:57.294Z,1.74
2023-03-03T00:22:57.263Z,1.78
2023-03-03T00:23:57.258Z,1.87
2023-03-03T00:24:57.274Z,1.84
2023-03-03T00:25:57.244Z,1.85
2023-03-03T00:26:57.198Z,1.87
2023-03-03T00:27:57.197Z,1.78
2023-03-03T00:28:57.194Z,1.78
2023-03-03T00:29:57.191Z,1.81
2023-03-03T00:30:57.142Z,1.84
2023-03-03T00:31:57.165Z,1.87
2023-03-03T00:32:57.118Z,1.77
2023-03-03T00:33:57.118Z,1.88
2023-03-03T00:34:57.091Z,1.78
2023-03-03T00:35:57.201Z,1.84
2023-03-03T00:36:57.095Z,1.89
2023-03-03T00:37:57.034Z,1.80
2023-03-03T00:38:57.031Z,1.73
2023-03-03T00:39:57.028Z,1.76
2023-03-03T00:40:57.007Z,1.76
2023-03-03T00:41:56.975Z,1.70
2023-03-03T00:42:56.956Z,1.62
2023-03-03T00:43:56.993Z,1.50
2023-03-03T00:44:56.953Z,1.48
2023-03-03T00:45:57.001Z,1.50
2023-03-03T00:46:56.907Z,1.53
2023-03-03T00:47:56.881Z,1.42
2023-03-03T00:48:56.913Z,1.44
2023-03-03T00:49:56.872Z,1.50
2023-03-03T00:50:56.852Z,1.44
2023-03-03T00:51:56.849Z,1.45
2023-03-03T00:52:56.842Z,1.52
2023-03-03T00:53:56.815Z,1.44
2023-03-03T00:54:56.812Z,1.49
2023-03-03T00:55:56.773Z,1.45
2023-03-03T00:56:56.796Z,1.45
2023-03-03T00:57:56.745Z,1.45
2023-03-03T00:58:56.729Z,1.41
2023-03-03T00:59:56.726Z,1.48
2023-03-03T01:00:56.832Z,1.49
2023-03-03T01:01:56.697Z,1.48
2023-03-03T01:02:56.768Z,1.45
2023-03-03T01:03:56.674Z,1.42
2023-03-03T01:04:56.699Z,1.44
2023-03-03T01:05:56.654Z,1.44
2023-03-03T01:06:56.604Z,1.42
2023-03-03T01:07:56.604Z,1.52
2023-03-03T01:08:56.585Z,1.44
2023-03-03T01:09:56.583Z,1.48
2023-03-03T01:10:56.569Z,1.41
2023-03-03T01:11:56.562Z,1.40
2023-03-03T01:12:56.538Z,1.45
2023-03-03T01:13:56.740Z,1.48
2023-03-03T01:14:56.491Z,1.50
2023-03-03T01:15:56.565Z,1.53
2023-03-03T01:16:56.468Z,1.53
2023-03-03T01:17:56.448Z,1.53
2023-03-03T01:18:56.429Z,1.50
2023-03-03T01:19:56.431Z,1.44
2023-03-03T01:20:56.424Z,1.35
2023-03-03T01:21:56.401Z,1.45
2023-03-03T01:22:56.377Z,1.44
2023-03-03T01:23:56.361Z,1.31
2023-03-03T01:24:57.976Z,1.24
2023-03-03T01:25:56.326Z,1.26
2023-03-03T01:26:56.316Z,1.23
2023-03-03T01:27:56.300Z,1.26
2023-03-03T01:28:56.282Z,1.28
2023-03-03T01:29:56.271Z,1.32
2023-03-03T01:30:56.316Z,1.38
2023-03-03T01:31:56.315Z,1.38
2023-03-03T01:32:56.234Z,1.38
2023-03-03T01:33:56.202Z,1.34
2023-03-03T01:34:56.220Z,1.34
2023-03-03T01:35:56.270Z,1.26
2023-03-03T01:36:56.178Z,1.28
2023-03-03T01:37:56.170Z,1.32
2023-03-03T01:38:56.148Z,1.24
2023-03-03T01:39:56.143Z,1.31
2023-03-03T01:40:56.143Z,1.31
2023-03-03T01:41:56.102Z,1.19
2023-03-03T01:42:56.105Z,1.19
2023-03-03T01:43:56.073Z,1.14
2023-03-03T01:44:56.074Z,1.12
2023-03-03T01:45:56.091Z,1.08
2023-03-03T01:46:56.048Z,1.05
2023-03-03T01:47:56.045Z,1.05
2023-03-03T01:48:56.009Z,1.01
2023-03-03T01:49:55.993Z,1.04
2023-03-03T01:50:55.994Z,1.04
2023-03-03T01:51:55.937Z,1.12
2023-03-03T01:52:55.940Z,0.91
2023-03-03T01:53:55.939Z,0.92
2023-03-03T01:54:55.944Z,0.92
2023-03-03T01:55:55.900Z,0.88
2023-03-03T01:56:55.881Z,0.96
2023-03-03T01:57:55.865Z,0.91
2023-03-03T01:58:55.852Z,0.78
2023-03-03T01:59:55.825Z,0.81
2023-03-03T02:00:55.833Z,0.83
2023-03-03T02:01:55.843Z,0.84
2023-03-03T02:02:55.878Z,0.83
2023-03-03T02:03:55.819Z,0.81
2023-03-03T02:04:55.749Z,0.80
2023-03-03T02:05:55.747Z,0.84
2023-03-03T02:06:55.714Z,0.70
2023-03-03T02:07:55.717Z,0.69
2023-03-03T02:08:55.719Z,0.77
2023-03-03T02:09:55.699Z,0.65
2023-03-03T02:10:55.678Z,0.63
2023-03-03T02:11:55.649Z,0.66
2023-03-03T02:12:55.640Z,0.63
2023-03-03T02:13:55.617Z,0.70
2023-03-03T02:14:55.650Z,0.78
2023-03-03T02:15:55.653Z,0.74
2023-03-03T02:16:55.577Z,0.83
2023-03-03T02:17:55.589Z,0.80
2023-03-03T02:18:55.541Z,0.76
2023-03-03T02:19:55.577Z,0.84
2023-03-03T02:20:55.528Z,0.87
2023-03-03T02:21:55.535Z,0.83
2023-03-03T02:22:55.502Z,0.80
2023-03-03T02:23:55.485Z,0.94
2023-03-03T02:24:55.474Z,0.94
2023-03-03T02:25:57.525Z,0.91
2023-03-03T02:26:55.449Z,1.05
2023-03-03T02:27:55.422Z,0.94
2023-03-03T02:28:55.413Z,1.02
2023-03-03T02:29:55.389Z,0.95
2023-03-03T02:30:55.371Z,0.94
2023-03-03T02:31:55.533Z,0.83
2023-03-03T02:32:55.341Z,0.70
2023-03-03T02:33:55.342Z,0.81
2023-03-03T02:34:55.304Z,0.70
2023-03-03T02:35:55.387Z,0.84
2023-03-03T02:36:55.257Z,0.86
2023-03-03T02:37:55.306Z,0.81
2023-03-03T02:38:55.247Z,0.74
2023-03-03T02:39:55.251Z,0.74
2023-03-03T02:40:55.271Z,0.70
2023-03-03T02:41:55.233Z,0.76
2023-03-03T02:42:55.181Z,0.73
2023-03-03T02:43:55.196Z,0.77
2023-03-03T02:44:55.185Z,0.77
2023-03-03T02:45:55.184Z,0.70
2023-03-03T02:46:55.151Z,0.70
2023-03-03T02:47:55.117Z,0.63
2023-03-03T02:48:55.098Z,0.62
2023-03-03T02:49:55.099Z,0.65
2023-03-03T02:50:55.056Z,0.68
2023-03-03T02:51:55.078Z,0.63
2023-03-03T02:52:55.055Z,0.56
2023-03-03T02:53:55.055Z,0.55
2023-03-03T02:54:55.004Z,0.52
2023-03-03T02:55:55.023Z,0.49
2023-03-03T02:56:55.021Z,0.47
2023-03-03T02:57:54.998Z,0.40
2023-03-03T02:58:54.988Z,0.31
2023-03-03T02:59:54.927Z,0.37
2023-03-03T03:00:54.922Z,0.37
2023-03-03T03:01:54.911Z,0.40
2023-03-03T03:02:54.903Z,0.34
2023-03-03T03:03:55.026Z,0.36
2023-03-03T03:04:54.860Z,0.32
2023-03-03T03:05:54.861Z,0.37
2023-03-03T03:06:54.824Z,0.39
2023-03-03T03:07:54.804Z,0.31
2023-03-03T03:08:54.801Z,0.37
2023-03-03T03:09:54.758Z,0.37
2023-03-03T03:10:54.762Z,0.39
2023-03-03T03:11:54.760Z,0.43
2023-03-03T03:12:54.935Z,0.29
2023-03-03T03:13:54.717Z,0.25
2023-03-03T03:14:54.690Z,0.40
2023-03-03T03:15:54.691Z,0.41
2023-03-03T03:16:54.717Z,0.37
2023-03-03T03:17:54.668Z,0.41
2023-03-03T03:18:54.645Z,0.43
2023-03-03T03:19:54.618Z,0.46
2023-03-03T03:20:54.609Z,0.56
2023-03-03T03:21:54.588Z,0.50
2023-03-03T03:22:54.550Z,0.46
2023-03-03T03:23:54.565Z,0.46
2023-03-03T03:24:54.548Z,0.49
2023-03-03T03:25:54.517Z,0.50
2023-03-03T03:26:54.508Z,0.62
2023-03-03T03:27:54.546Z,0.52
2023-03-03T03:28:54.623Z,0.56
2023-03-03T03:29:54.466Z,0.55
2023-03-03T03:30:54.663Z,0.47
2023-03-03T03:31:54.568Z,0.46
2023-03-03T03:32:54.426Z,0.40
2023-03-03T03:33:54.428Z,0.37
2023-03-03T03:34:54.377Z,0.47
2023-03-03T03:35:54.403Z,0.46
2023-03-03T03:36:54.364Z,0.41
2023-03-03T03:37:54.368Z,0.47
2023-03-03T03:38:54.320Z,0.43
2023-03-03T03:39:54.328Z,0.46
2023-03-03T03:40:54.317Z,0.36
2023-03-03T03:41:54.297Z,0.19
2023-03-03T03:42:54.313Z,0.22
2023-03-03T03:43:54.279Z,0.31
2023-03-03T03:44:54.239Z,0.28
2023-03-03T03:45:54.284Z,0.31
2023-03-03T03:46:54.285Z,0.21
2023-03-03T03:47:54.188Z,0.18
2023-03-03T03:48:54.221Z,0.16
2023-03-03T03:49:54.183Z,0.19
2023-03-03T03:50:54.158Z,0.21
2023-03-03T03:51:54.148Z,0.23
2023-03-03T03:52:54.363Z,0.23
2023-03-03T03:53:54.105Z,0.25
2023-03-03T03:54:54.098Z,0.19
2023-03-03T03:55:54.101Z,0.22
2023-03-03T03:56:54.067Z,0.28
2023-03-03T03:57:54.094Z,0.26
2023-03-03T03:58:54.026Z,0.37
2023-03-03T03:59:54.043Z,0.37
2023-03-03T04:00:54.008Z,0.39
2023-03-03T04:01:54.015Z,0.36
2023-03-03T04:02:54.204Z,0.50
2023-03-03T04:03:53.974Z,0.46
2023-03-03T04:04:53.931Z,0.46
2023-03-03T04:05:53.908Z,0.41
2023-03-03T04:06:53.899Z,0.49
2023-03-03T04:07:53.892Z,0.44
2023-03-03T04:08:53.890Z,0.44
2023-03-03T04:09:53.966Z,0.44
2023-03-03T04:10:53.863Z,0.43
2023-03-03T04:11:53.865Z,0.40
2023-03-03T04:12:53.826Z,0.28
2023-03-03T04:13:53.837Z,0.26
2023-03-03T04:14:53.772Z,0.23
2023-03-03T04:15:53.851Z,0.22
2023-03-03T04:16:53.783Z,0.29
2023-03-03T04:17:53.787Z,0.22
2023-03-03T04:18:53.744Z,0.16
2023-03-03T04:19:53.697Z,0.18
2023-03-03T04:20:53.685Z,0.18
2023-03-03T04:21:53.705Z,0.16
2023-03-03T04:22:53.712Z,0.22
2023-03-03T04:23:53.656Z,0.26
2023-03-03T04:24:53.625Z,0.23
2023-03-03T04:25:53.632Z,0.12
2023-03-03T04:26:53.614Z,0.18
2023-03-03T04:27:53.642Z,0.19
2023-03-03T04:28:53.590Z,0.25
2023-03-03T04:29:53.578Z,0.26
2023-03-03T04:30:53.623Z,0.18
2023-03-03T04:31:53.818Z,0.26
2023-03-03T04:32:53.525Z,0.31
2023-03-03T04:33:53.503Z,0.22
2023-03-03T04:35:05.742Z,0.31
2023-03-03T04:35:53.492Z,0.40
2023-03-03T04:36:53.432Z,0.47
2023-03-03T04:37:53.439Z,0.40
2023-03-03T04:38:53.424Z,0.44
2023-03-03T04:39:53.371Z,0.49
2023-03-03T04:40:53.600Z,0.55
2023-03-03T04:41:53.351Z,0.55
2023-03-03T04:42:53.448Z,0.60
2023-03-03T04:43:53.385Z,0.52
2023-03-03T04:44:53.355Z,0.58
2023-03-03T04:45:53.425Z,0.49
2023-03-03T04:46:53.290Z,0.55
2023-03-03T04:47:53.275Z,0.55
2023-03-03T04:48:53.302Z,0.46
2023-03-03T04:49:53.315Z,0.49
2023-03-03T04:50:53.224Z,0.37
2023-03-03T04:51:53.197Z,0.43
2023-03-03T04:52:53.196Z,0.40
2023-03-03T04:53:53.217Z,0.43
2023-03-03T04:54:53.157Z,0.46
2023-03-03T04:55:53.178Z,0.46
2023-03-03T04:56:53.191Z,0.49
2023-03-03T04:57:53.110Z,0.46
2023-03-03T04:58:53.139Z,0.46
2023-03-03T04:59:53.164Z,0.50
2023-03-03T05:00:53.077Z,0.49
2023-03-03T05:01:53.205Z,0.50
2023-03-03T05:02:53.053Z,0.49
2023-03-03T05:03:53.057Z,0.44
2023-03-03T05:04:53.076Z,0.37
2023-03-03T05:05:53.002Z,0.46
2023-03-03T05:06:53.000Z,0.37
2023-03-03T05:07:53.008Z,0.40
2023-03-03T05:08:53.004Z,0.41
2023-03-03T05:09:52.925Z,0.29
2023-03-03T05:10:52.934Z,0.23
2023-03-03T05:11:52.935Z,0.25
2023-03-03T05:12:52.872Z,0.28
2023-03-03T05:13:52.898Z,0.31
2023-03-03T05:14:52.901Z,0.31
2023-03-03T05:15:52.961Z,0.25
2023-03-03T05:16:52.839Z,0.31
2023-03-03T05:17:52.824Z,0.23
2023-03-03T05:18:52.815Z,0.23
2023-03-03T05:19:52.786Z,0.26
2023-03-03T05:20:52.787Z,0.23
2023-03-03T05:21:52.749Z,0.25
2023-03-03T05:22:52.747Z,0.22
2023-03-03T05:23:52.756Z,0.18
2023-03-03T05:24:52.696Z,0.23
2023-03-03T05:25:52.663Z,0.26
2023-03-03T05:26:52.664Z,0.19
2023-03-03T05:27:52.634Z,0.19
2023-03-03T05:28:52.622Z,0.07
2023-03-03T05:29:52.587Z,0.07
2023-03-03T05:30:52.586Z,0.00
2023-03-03T05:31:52.766Z,0.00
2023-03-03T05:32:52.582Z,0.07
2023-03-03T05:33:52.774Z,0.11
2023-03-03T05:34:52.576Z,0.10
2023-03-03T05:35:52.570Z,0.01
2023-03-03T05:36:52.553Z,0.01
2023-03-03T05:37:52.507Z,0.04
2023-03-03T05:38:52.529Z,0.10
2023-03-03T05:39:52.464Z,0.03
2023-03-03T05:40:52.631Z,0.07
2023-03-03T05:41:52.504Z,0.12
2023-03-03T05:42:52.438Z,0.07
2023-03-03T05:43:52.619Z,0.04
2023-03-03T05:44:52.379Z,0.00
2023-03-03T05:45:52.382Z,0.01
2023-03-03T05:46:52.424Z,0.03
2023-03-03T05:47:52.382Z,0.03
2023-03-03T05:48:52.336Z,0.05
2023-03-03T05:49:52.321Z,0.03
2023-03-03T05:50:52.274Z,0.00
2023-03-03T05:51:52.316Z,0.03
2023-03-03T05:52:52.234Z,0.03
2023-03-03T05:53:54.163Z,0.10
2023-03-03T05:54:52.241Z,0.01
2023-03-03T05:55:52.216Z,0.05
2023-03-03T05:56:52.182Z,0.01
2023-03-03T05:57:52.179Z,0.08
2023-03-03T05:58:52.142Z,0.15
2023-03-03T05:59:52.135Z,0.05
2023-03-03T06:00:52.139Z,0.11
2023-03-03T06:01:52.264Z,0.11
2023-03-03T06:02:52.181Z,0.19
2023-03-03T06:03:52.129Z,0.16
2023-03-03T06:04:52.112Z,0.16
2023-03-03T06:05:52.102Z,0.15
2023-03-03T06:06:52.046Z,0.21
2023-03-03T06:07:52.025Z,0.21
2023-03-03T06:08:52.026Z,0.26
2023-03-03T06:09:51.981Z,0.22
2023-03-03T06:10:52.019Z,0.23
2023-03-03T06:11:51.958Z,0.26
2023-03-03T06:12:51.946Z,0.34
2023-03-03T06:13:51.954Z,0.39
2023-03-03T06:14:51.928Z,0.32
2023-03-03T06:15:51.881Z,0.34
2023-03-03T06:16:51.883Z,0.25
2023-03-03T06:17:51.854Z,0.28
2023-03-03T06:18:51.844Z,0.29
2023-03-03T06:19:51.916Z,0.26
2023-03-03T06:20:51.813Z,0.23
2023-03-03T06:21:51.820Z,0.23
2023-03-03T06:22:51.803Z,0.21
2023-03-03T06:23:51.777Z,0.23
2023-03-03T06:24:51.745Z,0.19
2023-03-03T06:25:51.730Z,0.21
2023-03-03T06:26:51.718Z,0.15
2023-03-03T06:27:51.719Z,0.04
2023-03-03T06:28:51.681Z,0.03
2023-03-03T06:29:51.679Z,0.00
2023-03-03T06:30:51.665Z,-0.02
2023-03-03T06:31:51.745Z,0.01
2023-03-03T06:32:51.633Z,-0.02
2023-03-03T06:33:51.632Z,0.03
2023-03-03T06:34:51.590Z,0.03
2023-03-03T06:35:51.872Z,0.00
2023-03-03T06:36:51.600Z,0.01
2023-03-03T06:37:51.793Z,-0.06
2023-03-03T06:38:51.560Z,0.01
2023-03-03T06:39:51.507Z,0.01
2023-03-03T06:40:51.494Z,0.00
2023-03-03T06:41:51.506Z,0.00
2023-03-03T06:42:51.475Z,-0.07
2023-03-03T06:43:51.457Z,-0.11
2023-03-03T06:44:51.461Z,-0.08
2023-03-03T06:45:51.453Z,0.01
2023-03-03T06:46:51.440Z,-0.03
2023-03-03T06:47:51.429Z,-0.07
2023-03-03T06:48:51.378Z,-0.20
2023-03-03T06:49:51.370Z,-0.07
2023-03-03T06:50:51.399Z,-0.02
2023-03-03T06:51:51.413Z,0.01
2023-03-03T06:52:51.333Z,-0.23
2023-03-03T06:53:51.324Z,-0.13
2023-03-03T06:54:51.280Z,-0.03
2023-03-03T06:55:51.259Z,-0.02
2023-03-03T06:56:51.264Z,0.04
2023-03-03T06:57:51.241Z,0.04
2023-03-03T06:58:51.235Z,0.05
2023-03-03T06:59:51.214Z,0.11
2023-03-03T07:00:51.252Z,0.16
2023-03-03T07:01:51.188Z,0.16
2023-03-03T07:02:51.147Z,0.21
2023-03-03T07:03:51.161Z,0.19
2023-03-03T07:04:51.176Z,0.32
2023-03-03T07:05:51.116Z,0.26
2023-03-03T07:06:51.117Z,0.22
2023-03-03T07:07:51.118Z,0.29
2023-03-03T07:08:51.087Z,0.40
2023-03-03T07:09:51.057Z,0.32
2023-03-03T07:10:51.045Z,0.40
2023-03-03T07:11:51.054Z,0.36
2023-03-03T07:12:51.022Z,0.40
2023-03-03T07:13:51.013Z,0.37
2023-03-03T07:14:50.989Z,0.50
2023-03-03T07:15:50.984Z,0.47
2023-03-03T07:16:50.992Z,0.49
2023-03-03T07:17:51.407Z,0.47
2023-03-03T07:18:50.932Z,0.50
2023-03-03T07:19:50.946Z,0.46
2023-03-03T07:20:50.913Z,0.41
2023-03-03T07:21:50.880Z,0.21
2023-03-03T07:22:50.891Z,0.16
2023-03-03T07:23:50.908Z,0.10
2023-03-03T07:24:52.894Z,-0.03
2023-03-03T07:25:50.834Z,-0.14
2023-03-03T07:26:50.840Z,-0.15
2023-03-03T07:27:50.839Z,-0.14
2023-03-03T07:28:50.803Z,-0.21
2023-03-03T07:29:50.763Z,-0.23
2023-03-03T07:30:50.792Z,-0.28
2023-03-03T07:31:50.748Z,-0.23
2023-03-03T07:32:50.705Z,-0.15
2023-03-03T07:33:50.700Z,-0.18
2023-03-03T07:34:50.673Z,-0.07
2023-03-03T07:35:50.709Z,-0.10
2023-03-03T07:36:50.642Z,-0.18
2023-03-03T07:37:50.664Z,-0.15
2023-03-03T07:38:50.632Z,-0.17
2023-03-03T07:39:50.927Z,-0.20
2023-03-03T07:40:50.631Z,-0.20
2023-03-03T07:41:50.596Z,-0.18
2023-03-03T07:42:50.585Z,-0.17
2023-03-03T07:43:50.573Z,-0.17
2023-03-03T07:44:50.539Z,-0.07
2023-03-03T07:45:50.536Z,0.05
2023-03-03T07:46:50.756Z,0.03
2023-03-03T07:47:50.480Z,0.03
2023-03-03T07:48:50.513Z,0.11
2023-03-03T07:49:50.488Z,0.21
2023-03-03T07:50:50.479Z,0.23
2023-03-03T07:51:50.456Z,0.23
2023-03-03T07:52:50.461Z,0.15
2023-03-03T07:53:50.408Z,0.18
2023-03-03T07:54:50.387Z,0.18
2023-03-03T07:55:50.366Z,0.21
2023-03-03T07:56:50.346Z,0.21
2023-03-03T07:57:50.333Z,0.23
2023-03-03T07:58:50.326Z,0.23
2023-03-03T07:59:50.291Z,0.22
2023-03-03T08:00:50.376Z,0.29
2023-03-03T08:01:50.247Z,0.31
2023-03-03T08:02:50.233Z,0.22
2023-03-03T08:03:50.236Z,0.32
2023-03-03T08:04:50.437Z,0.26
2023-03-03T08:05:50.331Z,0.36
2023-03-03T08:06:50.189Z,0.39
2023-03-03T08:07:50.154Z,0.39
2023-03-03T08:08:50.147Z,0.39
2023-03-03T08:09:50.153Z,0.32
2023-03-03T08:10:50.240Z,0.34
2023-03-03T08:11:50.514Z,0.28
2023-03-03T08:12:50.073Z,0.19
2023-03-03T08:13:50.078Z,0.21
2023-03-03T08:14:50.042Z,0.21
2023-03-03T08:15:50.081Z,0.23
2023-03-03T08:16:50.009Z,0.19
2023-03-03T08:17:49.988Z,0.25
2023-03-03T08:18:49.983Z,0.22
2023-03-03T08:19:49.956Z,0.25
2023-03-03T08:20:49.969Z,0.26
2023-03-03T08:21:49.966Z,0.18
2023-03-03T08:22:49.933Z,0.21
2023-03-03T08:23:50.105Z,0.26
2023-03-03T08:24:49.877Z,0.19
2023-03-03T08:25:49.893Z,0.16
2023-03-03T08:26:49.877Z,0.12
2023-03-03T08:27:50.044Z,0.21
2023-03-03T08:28:49.837Z,0.19
2023-03-03T08:29:49.803Z,0.25
2023-03-03T08:30:49.839Z,0.37
2023-03-03T08:31:49.806Z,0.37
2023-03-03T08:32:49.806Z,0.49
2023-03-03T08:33:49.736Z,0.34
2023-03-03T08:34:49.742Z,0.41
2023-03-03T08:35:49.816Z,0.39
2023-03-03T08:36:49.687Z,0.32
2023-03-03T08:37:49.689Z,0.25
2023-03-03T08:38:49.719Z,0.32
2023-03-03T08:39:49.646Z,0.28
2023-03-03T08:40:49.649Z,0.36
2023-03-03T08:41:49.620Z,0.25
2023-03-03T08:42:49.646Z,0.28
2023-03-03T08:43:49.620Z,0.23
2023-03-03T08:44:49.569Z,0.15
2023-03-03T08:45:49.562Z,0.15
2023-03-03T08:46:49.599Z,0.15
2023-03-03T08:47:49.919Z,0.05
2023-03-03T08:48:49.524Z,0.11
2023-03-03T08:49:49.508Z,0.19
2023-03-03T08:50:49.517Z,0.19
2023-03-03T08:51:49.473Z,0.25
2023-03-03T08:52:49.465Z,0.21
2023-03-03T08:53:49.430Z,0.19
2023-03-03T08:54:49.471Z,0.07
2023-03-03T08:55:49.434Z,0.05
2023-03-03T08:56:49.374Z,0.18
2023-03-03T08:57:49.394Z,0.16
2023-03-03T08:59:01.752Z,0.19
2023-03-03T08:59:49.358Z,0.32
2023-03-03T09:00:51.838Z,0.25
2023-03-03T09:01:49.425Z,0.21
2023-03-03T09:02:49.308Z,0.18
2023-03-03T09:03:49.337Z,0.18
2023-03-03T09:04:49.342Z,0.23
2023-03-03T09:05:49.301Z,0.28
2023-03-03T09:06:49.254Z,0.29
2023-03-03T09:07:49.215Z,0.44
2023-03-03T09:08:49.186Z,0.44
2023-03-03T09:09:49.207Z,0.50
2023-03-03T09:10:49.277Z,0.62
2023-03-03T09:11:49.177Z,0.55
2023-03-03T09:12:49.200Z,0.63
2023-03-03T09:13:49.127Z,0.58
2023-03-03T09:14:49.118Z,0.62
2023-03-03T09:15:49.270Z,0.50
2023-03-03T09:16:49.080Z,0.46
2023-03-03T09:17:49.059Z,0.44
2023-03-03T09:18:49.045Z,0.34
2023-03-03T09:19:49.030Z,0.23
2023-03-03T09:20:49.035Z,0.18
2023-03-03T09:21:49.030Z,0.07
2023-03-03T09:22:48.970Z,0.03
2023-03-03T09:23:48.959Z,0.01
2023-03-03T09:24:48.950Z,0.05
2023-03-03T09:25:49.051Z,0.15
2023-03-03T09:26:48.919Z,0.07
2023-03-03T09:27:49.032Z,0.12
2023-03-03T09:28:48.915Z,0.19
2023-03-03T09:29:48.880Z,0.23
2023-03-03T09:30:48.887Z,0.23
2023-03-03T09:31:48.932Z,0.40
2023-03-03T09:32:48.829Z,0.46
2023-03-03T09:33:48.830Z,0.58
2023-03-03T09:34:48.788Z,0.52
2023-03-03T09:35:48.904Z,0.56
2023-03-03T09:36:48.799Z,0.62
2023-03-03T09:37:48.779Z,0.59
2023-03-03T09:38:48.771Z,0.63
2023-03-03T09:39:48.729Z,0.55
2023-03-03T09:40:48.698Z,0.55
2023-03-03T09:41:48.698Z,0.58
2023-03-03T09:42:48.655Z,0.66
2023-03-03T09:43:48.646Z,0.63
2023-03-03T09:44:48.636Z,0.68
2023-03-03T09:45:48.625Z,0.63
2023-03-03T09:46:48.746Z,0.81
2023-03-03T09:47:48.628Z,0.81
2023-03-03T09:48:48.585Z,0.77
2023-03-03T09:49:48.567Z,0.80
2023-03-03T09:50:48.547Z,0.94
2023-03-03T09:51:48.573Z,0.96
2023-03-03T09:52:48.518Z,0.96
2023-03-03T09:53:48.579Z,0.87
2023-03-03T09:54:48.507Z,0.84
2023-03-03T09:55:48.503Z,0.73
2023-03-03T09:56:48.466Z,0.59
2023-03-03T09:57:55.765Z,0.55
2023-03-03T09:58:48.428Z,0.47
2023-03-03T09:59:48.431Z,0.39
2023-03-03T10:00:48.391Z,0.41
2023-03-03T10:01:48.371Z,0.36
2023-03-03T10:02:48.497Z,0.40
2023-03-03T10:03:48.506Z,0.43
2023-03-03T10:04:48.762Z,0.58
2023-03-03T10:05:48.729Z,0.59
2023-03-03T10:06:48.341Z,0.55
2023-03-03T10:07:48.306Z,0.43
2023-03-03T10:08:48.277Z,0.41
2023-03-03T10:09:48.249Z,0.49
2023-03-03T10:10:48.225Z,0.59
2023-03-03T10:11:48.702Z,0.58
2023-03-03T10:12:48.506Z,0.59
2023-03-03T10:13:48.207Z,0.58
2023-03-03T10:14:48.183Z,0.65
2023-03-03T10:15:48.162Z,0.66
2023-03-03T10:16:48.242Z,0.83
2023-03-03T10:17:48.601Z,0.81
2023-03-03T10:18:48.650Z,0.88
2023-03-03T10:19:48.130Z,0.92
2023-03-03T10:20:51.216Z,0.86
2023-03-03T10:21:48.066Z,0.94
2023-03-03T10:22:48.062Z,0.92
2023-03-03T10:23:48.537Z,0.80
2023-03-03T10:24:48.025Z,0.81
2023-03-03T10:25:48.459Z,0.94
2023-03-03T10:27:01.767Z,0.88
2023-03-03T10:27:48.186Z,1.12
2023-03-03T10:28:48.105Z,1.08
2023-03-03T10:29:47.979Z,1.04
2023-03-03T10:31:02.576Z,1.17
2023-03-03T10:31:48.045Z,1.35
2023-03-03T10:32:48.123Z,1.24
2023-03-03T10:33:48.137Z,1.32
2023-03-03T10:34:47.868Z,1.28
2023-03-03T10:36:04.645Z,1.26
2023-03-03T10:36:47.833Z,1.05
2023-03-03T10:37:47.832Z,1.04
2023-03-03T10:38:47.801Z,0.98
2023-03-03T10:39:47.805Z,0.96
2023-03-03T10:40:47.813Z,1.04
2023-03-03T10:41:47.759Z,1.10
2023-03-03T10:42:47.767Z,0.88
2023-03-03T10:43:47.777Z,0.96
2023-03-03T10:44:47.739Z,0.91
2023-03-03T10:45:47.739Z,0.73
2023-03-03T10:46:47.702Z,0.83
2023-03-03T10:47:47.702Z,0.83
2023-03-03T10:48:47.705Z,0.84
2023-03-03T10:49:47.648Z,0.91
2023-03-03T10:50:47.641Z,0.94
2023-03-03T10:51:47.641Z,0.92
2023-03-03T10:52:47.636Z,0.91
2023-03-03T10:53:47.589Z,0.83
2023-03-03T10:54:47.625Z,0.74
2023-03-03T10:55:47.545Z,0.83
2023-03-03T10:56:53.305Z,0.86
2023-03-03T10:57:47.532Z,0.92
2023-03-03T10:58:47.538Z,0.98
2023-03-03T10:59:47.533Z,1.05
2023-03-03T11:00:47.527Z,1.10
2023-03-03T11:01:47.512Z,1.14
2023-03-03T11:02:47.465Z,1.20
2023-03-03T11:03:47.448Z,1.23
2023-03-03T11:04:47.509Z,1.26
2023-03-03T11:05:47.402Z,1.32
2023-03-03T11:06:47.386Z,1.44
2023-03-03T11:07:47.410Z,1.38
2023-03-03T11:08:47.386Z,1.42
2023-03-03T11:09:47.337Z,1.49
2023-03-03T11:10:47.351Z,1.52
2023-03-03T11:11:47.517Z,1.58
2023-03-03T11:12:47.288Z,1.67
2023-03-03T11:13:47.333Z,1.73
2023-03-03T11:14:47.268Z,1.80
2023-03-03T11:15:47.304Z,1.87
2023-03-03T11:16:47.330Z,1.78
2023-03-03T11:17:47.431Z,1.81
2023-03-03T11:18:47.256Z,1.84
2023-03-03T11:19:47.192Z,1.81
2023-03-03T11:20:47.250Z,1.84
2023-03-03T11:21:47.191Z,1.95
2023-03-03T11:22:47.154Z,1.92
2023-03-03T11:23:47.203Z,1.85
2023-03-03T11:24:47.122Z,1.68
2023-03-03T11:25:47.101Z,1.62
2023-03-03T11:26:47.112Z,1.66
2023-03-03T11:27:47.087Z,1.77
2023-03-03T11:28:47.062Z,1.85
2023-03-03T11:29:47.051Z,1.84
2023-03-03T11:30:47.077Z,1.85
2023-03-03T11:31:47.497Z,1.97
2023-03-03T11:32:47.001Z,1.97
2023-03-03T11:33:46.987Z,2.06
2023-03-03T11:34:47.009Z,2.06
2023-03-03T11:35:46.972Z,1.80
2023-03-03T11:36:46.946Z,1.81
2023-03-03T11:37:46.928Z,1.81
2023-03-03T11:38:46.924Z,1.88
2023-03-03T11:39:46.917Z,1.94
2023-03-03T11:40:46.884Z,1.99
2023-03-03T11:41:46.862Z,1.91
2023-03-03T11:42:46.855Z,1.60
2023-03-03T11:43:46.883Z,1.70
2023-03-03T11:44:46.843Z,1.68
2023-03-03T11:45:46.881Z,1.76
2023-03-03T11:46:46.800Z,1.63
2023-03-03T11:47:46.778Z,1.59
2023-03-03T11:48:46.782Z,1.53
2023-03-03T11:49:46.975Z,1.59
2023-03-03T11:50:46.739Z,1.70
2023-03-03T11:51:46.741Z,1.63
2023-03-03T11:52:46.726Z,1.66
2023-03-03T11:53:46.699Z,1.67
2023-03-03T11:54:46.695Z,1.84
2023-03-03T11:55:46.693Z,1.88
2023-03-03T11:56:46.711Z,1.84
2023-03-03T11:57:46.654Z,1.77
2023-03-03T11:58:46.624Z,1.80
2023-03-03T11:59:46.656Z,1.87
2023-03-03T12:00:46.593Z,1.94
2023-03-03T12:01:46.573Z,1.84
2023-03-03T12:02:46.629Z,1.68
2023-03-03T12:03:46.554Z,1.74
2023-03-03T12:04:46.543Z,1.87
2023-03-03T12:05:46.613Z,1.88
2023-03-03T12:06:46.525Z,2.06
2023-03-03T12:07:46.503Z,2.07
2023-03-03T12:08:46.475Z,2.07
2023-03-03T12:09:46.465Z,2.10
2023-03-03T12:10:46.437Z,2.11
2023-03-03T12:11:46.460Z,2.18
2023-03-03T12:12:46.422Z,2.31
2023-03-03T12:13:46.394Z,2.26
2023-03-03T12:14:46.411Z,2.18
2023-03-03T12:15:46.432Z,2.17
2023-03-03T12:16:46.365Z,2.08
2023-03-03T12:17:46.347Z,2.13
2023-03-03T12:18:46.320Z,2.13
2023-03-03T12:19:46.327Z,1.97
2023-03-03T12:20:46.293Z,1.95
2023-03-03T12:21:46.282Z,1.94
2023-03-03T12:22:52.426Z,1.97
2023-03-03T12:23:46.263Z,2.13
2023-03-03T12:24:46.257Z,2.13
2023-03-03T12:25:46.238Z,2.20
2023-03-03T12:26:46.231Z,2.17
2023-03-03T12:27:46.462Z,2.10
2023-03-03T12:28:46.225Z,2.24
2023-03-03T12:29:46.209Z,2.32
2023-03-03T12:30:46.191Z,2.28
2023-03-03T12:31:46.151Z,2.35
2023-03-03T12:32:46.144Z,2.47
2023-03-03T12:33:46.140Z,2.51
2023-03-03T12:34:46.312Z,2.57
2023-03-03T12:35:46.121Z,2.57
2023-03-03T12:36:46.298Z,2.54
2023-03-03T12:37:46.074Z,2.61
2023-03-03T12:38:46.059Z,2.71
2023-03-03T12:39:46.050Z,2.68
2023-03-03T12:40:46.055Z,2.75
2023-03-03T12:41:46.026Z,2.75
2023-03-03T12:42:46.006Z,2.79
2023-03-03T12:43:46.049Z,2.72
2023-03-03T12:44:45.961Z,2.64
2023-03-03T12:45:45.947Z,2.67
2023-03-03T12:46:46.029Z,2.64
2023-03-03T12:47:45.920Z,2.67
2023-03-03T12:48:45.940Z,2.71
2023-03-03T12:49:51.988Z,2.79
2023-03-03T12:50:45.898Z,2.77
2023-03-03T12:51:45.872Z,2.82
2023-03-03T12:52:45.856Z,2.77
2023-03-03T12:53:45.863Z,2.74
2023-03-03T12:54:45.858Z,2.79
2023-03-03T12:55:45.828Z,2.75
2023-03-03T12:56:45.837Z,2.71
2023-03-03T12:57:45.779Z,2.72
2023-03-03T12:58:45.775Z,2.67
2023-03-03T12:59:45.781Z,2.71
2023-03-03T13:00:46.051Z,2.68
2023-03-03T13:01:45.732Z,2.71
2023-03-03T13:02:45.741Z,2.74
2023-03-03T13:03:55.316Z,2.62
2023-03-03T13:04:45.686Z,2.56
2023-03-03T13:05:45.928Z,2.60
2023-03-03T13:06:45.688Z,2.56
2023-03-03T13:07:45.718Z,2.50
2023-03-03T13:08:45.637Z,2.64
2023-03-03T13:09:45.629Z,2.61
2023-03-03T13:10:45.610Z,2.67
2023-03-03T13:11:45.593Z,2.64
2023-03-03T13:12:45.768Z,2.68
2023-03-03T13:13:45.571Z,2.67
2023-03-03T13:14:45.543Z,2.65
2023-03-03T13:15:55.245Z,2.65
2023-03-03T13:16:45.583Z,2.65
2023-03-03T13:17:47.707Z,2.65